Bonaventure, Canada
Current Conditions -  °F | °C
As of 3:00 PM on Saturday 25 Oct 2014 (Local Time) from CZBF Reporting Station
Drizzle Drizzle  
Wind Chill: 36°   Ceiling: 500
Heat Index: 41°   Visibility: 1.2mi
Dew Point: 39°   Wind: 7mph
Humidity: 93%   Direction: 40°NE
Pressure: 29.59"   Gusts: NA
Location:  48.05°N, 65.47°W
Report Text: CZBF 251900Z 04006KT 350V080 1 1/4SM -DZ BR BKN005 OVC035 05/04 A2959 RMK ST7SC1 SLP022
Loading
Personal Weather Stations






























Interactive Weather Map
Tropical Storm Tracking
New forecast layout! Learn more

10-Day Weather Forecast

Advertisements
Track Severe Weather on mobile